Time;durP1;ratioP1;P1;durP2;ratioP2;P2;SDS_P1;SDS_P2;PMS_P1;PMS_P2;Temp;Humidity;BMP_temperature;BMP_pressure;BME280_temperature;BME280_humidity;BME280_pressure;Samples;Min_cycle;Max_cycle;Signal;HPM_P1;HPM_P2
2023/04/04 00:02:09;;;;;;;;;;;20.70;99.90;;;;;;5101054;28;19908;-65
2023/04/04 00:04:35;;;;;;;;;;;20.70;99.90;;;;;;5099736;28;19908;-70
2023/04/04 00:07:02;;;;;;;;;;;20.90;99.90;;;;;;5101284;28;20287;-67
2023/04/04 00:09:29;;;;;;;;;;;20.90;99.90;;;;;;5098979;28;20425;-67
2023/04/04 00:11:56;;;;;;;;;;;21.00;99.90;;;;;;5100466;28;19912;-67
2023/04/04 00:14:23;;;;;;;;;;;21.00;99.90;;;;;;5100223;28;19914;-69
2023/04/04 00:16:50;;;;;;;;;;;21.10;99.90;;;;;;5099403;28;19908;-65
2023/04/04 00:19:17;;;;;;;;;;;21.30;99.90;;;;;;5100394;28;20370;-66
2023/04/04 00:21:49;;;;;;;;;;;21.50;99.90;;;;;;5099679;28;20272;-65
2023/04/04 00:24:15;;;;;;;;;;;21.70;99.90;;;;;;5100516;28;20270;-66
2023/04/04 00:26:42;;;;;;;;;;;21.80;99.90;;;;;;5101070;28;19912;-67
2023/04/04 00:29:09;;;;;;;;;;;22.00;99.90;;;;;;5098560;28;19912;-72
2023/04/04 00:31:35;;;;;;;;;;;22.10;99.90;;;;;;5100360;28;19915;-65
2023/04/04 00:34:02;;;;;;;;;;;22.20;99.90;;;;;;5099815;28;20340;-66
2023/04/04 00:36:29;;;;;;;;;;;22.40;99.90;;;;;;5100101;28;19908;-66
2023/04/04 00:38:55;;;;;;;;;;;22.40;99.90;;;;;;5098895;28;19937;-71
2023/04/04 00:41:22;;;;;;;;;;;22.50;99.90;;;;;;5100907;28;19963;-66
2023/04/04 00:43:49;;;;;;;;;;;22.50;99.90;;;;;;5101183;28;19908;-72
2023/04/04 00:46:17;;;;;;;;;;;22.70;99.90;;;;;;5099245;28;19908;-66
2023/04/04 00:48:44;;;;;;;;;;;22.80;99.90;;;;;;5100250;28;19908;-66
2023/04/04 00:51:11;;;;;;;;;;;22.90;99.90;;;;;;5099056;28;20457;-68
2023/04/04 00:53:38;;;;;;;;;;;23.10;99.90;;;;;;5101110;28;19907;-68
2023/04/04 00:56:05;;;;;;;;;;;23.20;99.90;;;;;;5080191;28;19933;-65
2023/04/04 00:58:32;;;;;;;;;;;23.40;99.90;;;;;;5099208;28;19912;-65
2023/04/04 01:01:00;;;;;;;;;;;23.70;99.90;;;;;;5098245;28;20059;-65
2023/04/04 01:03:26;;;;;;;;;;;23.90;99.90;;;;;;5099283;28;19914;-66
2023/04/04 01:05:54;;;;;;;;;;;24.10;99.90;;;;;;5099325;28;19943;-67
2023/04/04 01:08:22;;;;;;;;;;;24.40;99.90;;;;;;5099573;28;19914;-72
2023/04/04 01:10:49;;;;;;;;;;;24.70;99.90;;;;;;5100034;28;19927;-68
2023/04/04 01:13:16;;;;;;;;;;;24.90;99.90;;;;;;5097372;28;19942;-69
2023/04/04 01:15:43;;;;;;;;;;;24.80;99.90;;;;;;5099667;28;19965;-73
2023/04/04 01:18:12;;;;;;;;;;;24.80;99.90;;;;;;5097862;28;20011;-68
2023/04/04 01:20:43;;;;;;;;;;;24.70;99.90;;;;;;5099372;28;19912;-66
2023/04/04 01:23:11;;;;;;;;;;;24.60;99.90;;;;;;5097569;28;19912;-66
2023/04/04 01:25:38;;;;;;;;;;;24.70;99.90;;;;;;5099356;28;19938;-65
2023/04/04 01:28:04;;;;;;;;;;;24.70;99.90;;;;;;5097777;28;19914;-66
2023/04/04 01:30:34;;;;;;;;;;;24.60;99.90;;;;;;5098577;28;19916;-67
2023/04/04 01:33:07;;;;;;;;;;;24.60;99.40;;;;;;5098270;28;19912;-65
2023/04/04 01:35:51;;;;;;;;;;;24.50;99.40;;;;;;5098763;28;19922;-67
2023/04/04 01:38:21;;;;;;;;;;;24.40;99.20;;;;;;5096754;28;19908;-66
2023/04/04 01:40:48;;;;;;;;;;;24.40;99.20;;;;;;5080535;28;19920;-67
2023/04/04 01:43:15;;;;;;;;;;;24.40;99.00;;;;;;5097622;28;19908;-67
2023/04/04 01:45:41;;;;;;;;;;;24.50;98.70;;;;;;5098942;28;19908;-68
2023/04/04 01:48:09;;;;;;;;;;;24.90;98.40;;;;;;5097900;28;19961;-66
2023/04/04 01:50:36;;;;;;;;;;;25.10;98.30;;;;;;5097851;28;19938;-67
2023/04/04 01:53:03;;;;;;;;;;;25.50;98.40;;;;;;5098381;28;19908;-67
2023/04/04 01:55:30;;;;;;;;;;;26.10;98.50;;;;;;5098849;28;19951;-67
2023/04/04 01:57:56;;;;;;;;;;;26.50;96.50;;;;;;5098758;28;19933;-67
2023/04/04 02:00:23;;;;;;;;;;;26.70;95.90;;;;;;5096544;28;19977;-67
2023/04/04 02:02:50;;;;;;;;;;;26.70;95.40;;;;;;5098740;28;19908;-68
2023/04/04 02:05:16;;;;;;;;;;;26.60;95.80;;;;;;5097380;28;19947;-67
2023/04/04 02:07:47;;;;;;;;;;;26.60;95.80;;;;;;5098263;28;19908;-66
2023/04/04 02:10:13;;;;;;;;;;;26.90;95.50;;;;;;5097149;28;20387;-67
2023/04/04 02:12:40;;;;;;;;;;;27.10;94.80;;;;;;5097883;28;19908;-65
2023/04/04 02:15:07;;;;;;;;;;;27.00;94.20;;;;;;5098331;28;19915;-65
2023/04/04 02:17:34;;;;;;;;;;;26.50;94.70;;;;;;5098281;28;19908;-67
2023/04/04 02:20:01;;;;;;;;;;;26.30;95.50;;;;;;5098880;28;19914;-70
2023/04/04 02:22:27;;;;;;;;;;;26.00;95.70;;;;;;5096754;28;20379;-73
2023/04/04 02:24:56;;;;;;;;;;;25.70;96.40;;;;;;5098091;28;19911;-70
2023/04/04 02:27:24;;;;;;;;;;;25.50;96.50;;;;;;5096662;28;19989;-69
2023/04/04 02:29:52;;;;;;;;;;;25.30;97.00;;;;;;5098136;28;19961;-70
2023/04/04 02:32:20;;;;;;;;;;;25.10;97.10;;;;;;5096431;28;19908;-66
2023/04/04 02:34:47;;;;;;;;;;;24.90;97.40;;;;;;5097311;28;19912;-71
2023/04/04 02:37:13;;;;;;;;;;;24.70;97.60;;;;;;5096727;28;20356;-66
2023/04/04 02:39:40;;;;;;;;;;;24.70;97.90;;;;;;5097929;28;20735;-65
2023/04/04 02:42:06;;;;;;;;;;;24.60;98.20;;;;;;5098413;28;19950;-65
2023/04/04 02:44:33;;;;;;;;;;;24.60;98.30;;;;;;5097701;28;19954;-65
2023/04/04 02:47:00;;;;;;;;;;;24.60;98.40;;;;;;5097563;28;20249;-65
2023/04/04 02:49:28;;;;;;;;;;;24.60;98.50;;;;;;5096710;28;20389;-64
2023/04/04 02:51:55;;;;;;;;;;;24.70;98.60;;;;;;5097098;28;20007;-68
2023/04/04 02:54:21;;;;;;;;;;;24.80;98.60;;;;;;5096538;28;19907;-66
2023/04/04 02:56:48;;;;;;;;;;;24.80;98.50;;;;;;5097215;28;19947;-67
2023/04/04 02:59:16;;;;;;;;;;;24.70;98.70;;;;;;5078654;28;19908;-68
2023/04/04 03:01:43;;;;;;;;;;;24.80;98.30;;;;;;5097918;28;19907;-69
2023/04/04 03:04:10;;;;;;;;;;;25.20;98.50;;;;;;5097806;28;19908;-67
2023/04/04 03:06:37;;;;;;;;;;;26.10;96.60;;;;;;5097520;28;19961;-65
2023/04/04 03:09:04;;;;;;;;;;;26.90;96.90;;;;;;5096706;28;19903;-70
2023/04/04 03:11:31;;;;;;;;;;;29.00;95.60;;;;;;5096421;28;20395;-68
2023/04/04 03:13:57;;;;;;;;;;;30.60;92.40;;;;;;5095917;28;19970;-69
2023/04/04 03:16:25;;;;;;;;;;;32.20;88.60;;;;;;5095694;28;19908;-70
2023/04/04 03:18:52;;;;;;;;;;;32.20;85.90;;;;;;5096610;28;19977;-71
2023/04/04 03:21:18;;;;;;;;;;;32.50;85.20;;;;;;5077084;28;20061;-64
2023/04/04 03:23:45;;;;;;;;;;;32.50;83.90;;;;;;5098104;28;19912;-72
2023/04/04 03:26:12;;;;;;;;;;;33.10;81.90;;;;;;5097824;28;19953;-72
2023/04/04 03:28:38;;;;;;;;;;;34.10;81.10;;;;;;5096533;28;19919;-66
2023/04/04 03:31:05;;;;;;;;;;;33.60;78.80;;;;;;5096426;28;19916;-64
2023/04/04 03:33:35;;;;;;;;;;;32.60;79.40;;;;;;5096125;28;20011;-66
2023/04/04 03:36:02;;;;;;;;;;;31.70;82.80;;;;;;5097152;28;19915;-69
2023/04/04 03:38:29;;;;;;;;;;;31.80;83.30;;;;;;5096415;28;19931;-67
2023/04/04 03:41:02;;;;;;;;;;;32.60;82.50;;;;;;5095973;28;19959;-67
2023/04/04 03:43:30;;;;;;;;;;;33.80;78.60;;;;;;5096148;28;20345;-68
2023/04/04 03:46:00;;;;;;;;;;;35.40;78.30;;;;;;5099504;28;20146;-70
2023/04/04 03:48:27;;;;;;;;;;;36.00;74.30;;;;;;5099410;28;19999;-70
2023/04/04 03:50:55;;;;;;;;;;;35.10;74.30;;;;;;5100265;28;19915;-66
2023/04/04 03:53:22;;;;;;;;;;;34.70;76.70;;;;;;5100911;28;19915;-67
2023/04/04 03:55:48;;;;;;;;;;;34.30;76.60;;;;;;5100724;28;19914;-68
2023/04/04 03:58:15;;;;;;;;;;;33.10;77.30;;;;;;5101454;28;20197;-67
2023/04/04 04:00:42;;;;;;;;;;;31.60;80.20;;;;;;5099269;28;20100;-66
2023/04/04 04:03:08;;;;;;;;;;;30.40;83.70;;;;;;5100356;28;20091;-68
2023/04/04 04:05:35;;;;;;;;;;;29.30;86.40;;;;;;5099587;28;19995;-67
2023/04/04 04:08:02;;;;;;;;;;;29.10;88.10;;;;;;5099924;28;19912;-66
2023/04/04 04:10:29;;;;;;;;;;;30.20;87.80;;;;;;5099013;28;19923;-68
2023/04/04 04:12:55;;;;;;;;;;;32.40;82.50;;;;;;5101169;28;19908;-67
2023/04/04 04:15:22;;;;;;;;;;;34.20;76.70;;;;;;5100249;28;19912;-68
2023/04/04 04:17:49;;;;;;;;;;;35.20;75.70;;;;;;5095810;28;20298;-66
2023/04/04 04:20:16;;;;;;;;;;;35.00;74.10;;;;;;5082450;28;19957;-67
2023/04/04 04:22:46;;;;;;;;;;;33.80;75.50;;;;;;5089920;28;19911;-66
2023/04/04 04:25:13;;;;;;;;;;;32.40;78.10;;;;;;5098050;28;19916;-67
2023/04/04 04:27:40;;;;;;;;;;;31.00;81.00;;;;;;5099343;28;19912;-67
2023/04/04 04:30:07;;;;;;;;;;;30.60;83.70;;;;;;5094587;28;20292;-70
2023/04/04 04:32:34;;;;;;;;;;;31.20;81.80;;;;;;5097279;28;19915;-66
2023/04/04 04:35:01;;;;;;;;;;;31.20;81.00;;;;;;5097830;28;20272;-69
2023/04/04 04:37:27;;;;;;;;;;;30.40;82.40;;;;;;5099727;28;19930;-67
2023/04/04 04:39:54;;;;;;;;;;;30.00;84.40;;;;;;5099624;28;19919;-66
2023/04/04 04:42:21;;;;;;;;;;;30.70;86.40;;;;;;5090187;28;19972;-67
2023/04/04 04:44:47;;;;;;;;;;;32.50;80.00;;;;;;5085672;28;20586;-66
2023/04/04 04:47:14;;;;;;;;;;;34.10;77.00;;;;;;5098288;28;19999;-67
2023/04/04 04:49:43;;;;;;;;;;;35.30;74.10;;;;;;5098445;28;19912;-66
2023/04/04 04:52:10;;;;;;;;;;;36.20;73.10;;;;;;5096169;27;19999;-68
2023/04/04 04:54:36;;;;;;;;;;;37.20;71.00;;;;;;5095626;28;20436;-70
2023/04/04 04:57:03;;;;;;;;;;;37.60;69.40;;;;;;5095088;28;20113;-68
2023/04/04 04:59:30;;;;;;;;;;;37.00;71.90;;;;;;5097617;28;19912;-67
2023/04/04 05:01:56;;;;;;;;;;;37.50;70.10;;;;;;5098503;28;20368;-68
2023/04/04 05:04:23;;;;;;;;;;;37.20;70.10;;;;;;5091600;28;19916;-67
2023/04/04 05:06:49;;;;;;;;;;;37.40;70.90;;;;;;5079095;28;19920;-67
2023/04/04 05:09:16;;;;;;;;;;;37.10;70.10;;;;;;5096976;28;19916;-68
2023/04/04 05:11:43;;;;;;;;;;;35.70;71.00;;;;;;5087093;28;20554;-68
2023/04/04 05:14:09;;;;;;;;;;;34.70;74.10;;;;;;5092575;28;19904;-67
2023/04/04 05:16:36;;;;;;;;;;;34.70;74.80;;;;;;5098475;28;20048;-66
2023/04/04 05:19:03;;;;;;;;;;;35.60;73.60;;;;;;5095909;28;19912;-70
2023/04/04 05:21:29;;;;;;;;;;;36.50;73.10;;;;;;5093661;28;19918;-65
2023/04/04 05:23:57;;;;;;;;;;;37.00;72.70;;;;;;5093901;28;20299;-67
2023/04/04 05:26:24;;;;;;;;;;;36.90;71.50;;;;;;5079192;28;19907;-67
2023/04/04 05:28:50;;;;;;;;;;;36.50;71.80;;;;;;5095745;28;19911;-67
2023/04/04 05:31:17;;;;;;;;;;;35.30;73.30;;;;;;5097929;28;19920;-71
2023/04/04 05:33:44;;;;;;;;;;;33.60;75.80;;;;;;5092460;28;19912;-74
2023/04/04 05:36:11;;;;;;;;;;;32.50;78.50;;;;;;5087977;28;20306;-65
2023/04/04 05:38:38;;;;;;;;;;;31.10;82.10;;;;;;5096052;28;20380;-70
2023/04/04 05:41:05;;;;;;;;;;;30.70;82.60;;;;;;5096490;28;19920;-66
2023/04/04 05:43:31;;;;;;;;;;;30.40;84.10;;;;;;5080653;28;19931;-68
2023/04/04 05:45:58;;;;;;;;;;;29.80;84.60;;;;;;5096698;28;19908;-70
2023/04/04 05:48:24;;;;;;;;;;;29.40;85.30;;;;;;5093408;28;19923;-67
2023/04/04 05:50:51;;;;;;;;;;;28.70;86.80;;;;;;5096049;28;19924;-65
2023/04/04 05:53:18;;;;;;;;;;;28.50;87.70;;;;;;5095010;28;20345;-71
2023/04/04 05:55:45;;;;;;;;;;;29.20;88.90;;;;;;5074053;28;19942;-67
2023/04/04 05:58:11;;;;;;;;;;;31.00;83.40;;;;;;5096781;28;19961;-68
2023/04/04 06:00:38;;;;;;;;;;;32.60;81.20;;;;;;5094058;28;19919;-70
2023/04/04 06:03:05;;;;;;;;;;;34.30;78.60;;;;;;5096074;28;20077;-70
2023/04/04 06:05:31;;;;;;;;;;;35.70;74.50;;;;;;5097234;28;19930;-67
2023/04/04 06:07:59;;;;;;;;;;;36.40;72.80;;;;;;5095257;28;20696;-71
2023/04/04 06:10:26;;;;;;;;;;;36.40;71.50;;;;;;5096442;28;20319;-69
2023/04/04 06:12:52;;;;;;;;;;;35.10;72.70;;;;;;5090413;28;20380;-66
2023/04/04 06:15:19;;;;;;;;;;;34.50;73.80;;;;;;5096809;28;19953;-70
2023/04/04 06:17:46;;;;;;;;;;;34.10;76.30;;;;;;5096941;28;19911;-70
2023/04/04 06:20:12;;;;;;;;;;;34.50;75.50;;;;;;5096108;28;20364;-68
2023/04/04 06:22:40;;;;;;;;;;;34.70;74.50;;;;;;5096963;28;20732;-70
2023/04/04 06:25:09;;;;;;;;;;;34.80;74.80;;;;;;5083322;28;19999;-64
2023/04/04 06:27:36;;;;;;;;;;;35.60;73.40;;;;;;5095523;28;19984;-65
2023/04/04 06:30:02;;;;;;;;;;;36.00;73.70;;;;;;5094366;28;20006;-66
2023/04/04 06:32:30;;;;;;;;;;;36.80;71.70;;;;;;5091933;28;19907;-66
2023/04/04 06:34:57;;;;;;;;;;;36.50;70.70;;;;;;5095725;28;19964;-65
2023/04/04 06:37:24;;;;;;;;;;;35.30;73.10;;;;;;5095745;28;19912;-71
2023/04/04 06:39:51;;;;;;;;;;;34.30;74.30;;;;;;5096092;28;20292;-68
2023/04/04 06:42:17;;;;;;;;;;;33.10;76.20;;;;;;5097031;28;19912;-64
2023/04/04 06:44:44;;;;;;;;;;;31.70;78.60;;;;;;5097682;28;19977;-68
2023/04/04 06:47:11;;;;;;;;;;;30.30;82.60;;;;;;5096243;28;19918;-65
2023/04/04 06:49:37;;;;;;;;;;;29.70;83.70;;;;;;5075347;28;19924;-64
2023/04/04 06:52:04;;;;;;;;;;;29.40;84.00;;;;;;5095636;28;19912;-66
2023/04/04 06:54:31;;;;;;;;;;;29.00;84.60;;;;;;5096238;28;20383;-66
2023/04/04 06:56:57;;;;;;;;;;;28.60;86.60;;;;;;5094561;28;21565;-64
2023/04/04 06:59:24;;;;;;;;;;;28.20;87.90;;;;;;5096339;28;19943;-65
2023/04/04 07:01:51;;;;;;;;;;;28.10;88.00;;;;;;5096753;28;19908;-67
2023/04/04 07:04:20;;;;;;;;;;;27.70;89.30;;;;;;5092887;28;20233;-66
2023/04/04 07:06:47;;;;;;;;;;;27.20;90.40;;;;;;5096178;28;19904;-66
2023/04/04 07:09:14;;;;;;;;;;;26.90;91.00;;;;;;5095595;28;19908;-67
2023/04/04 07:11:40;;;;;;;;;;;26.50;91.90;;;;;;5092104;28;19919;-71
2023/04/04 07:14:07;;;;;;;;;;;26.00;92.50;;;;;;5094182;28;19964;-66
2023/04/04 07:16:35;;;;;;;;;;;25.60;93.20;;;;;;5095396;28;19964;-70
2023/04/04 07:19:02;;;;;;;;;;;25.30;93.80;;;;;;5095944;28;19947;-66
2023/04/04 07:21:29;;;;;;;;;;;24.90;94.60;;;;;;5100125;28;19908;-66
2023/04/04 07:23:55;;;;;;;;;;;24.50;95.40;;;;;;5098602;28;19912;-66
2023/04/04 07:26:22;;;;;;;;;;;24.40;96.10;;;;;;5100894;28;19908;-65
2023/04/04 07:28:49;;;;;;;;;;;24.10;96.90;;;;;;5092988;28;19912;-65
2023/04/04 07:31:15;;;;;;;;;;;23.80;97.70;;;;;;5097632;28;20376;-66
2023/04/04 07:33:42;;;;;;;;;;;23.80;98.60;;;;;;5099844;28;19926;-65
2023/04/04 07:36:08;;;;;;;;;;;23.70;98.90;;;;;;5099399;28;19990;-65
2023/04/04 07:38:35;;;;;;;;;;;23.50;99.50;;;;;;5098078;28;19911;-68
2023/04/04 07:41:02;;;;;;;;;;;23.50;99.90;;;;;;5098420;28;20077;-66
2023/04/04 07:43:28;;;;;;;;;;;23.50;99.90;;;;;;5100901;28;19908;-67
2023/04/04 07:45:55;;;;;;;;;;;23.40;99.90;;;;;;5100590;28;20466;-64
2023/04/04 07:48:22;;;;;;;;;;;23.30;99.90;;;;;;5101245;28;20031;-68
2023/04/04 07:50:49;;;;;;;;;;;23.10;99.90;;;;;;5099283;28;19915;-68
2023/04/04 07:53:15;;;;;;;;;;;23.00;99.90;;;;;;5086107;28;19920;-66
2023/04/04 07:55:42;;;;;;;;;;;22.90;99.90;;;;;;5097608;28;19949;-65
2023/04/04 07:58:09;;;;;;;;;;;22.80;99.90;;;;;;5098882;28;19908;-64
2023/04/04 08:00:35;;;;;;;;;;;22.70;99.90;;;;;;5084827;28;19916;-65
2023/04/04 08:03:02;;;;;;;;;;;22.60;99.90;;;;;;5098979;28;20015;-66
2023/04/04 08:05:29;;;;;;;;;;;22.60;99.90;;;;;;5100382;28;19912;-68
2023/04/04 08:07:56;;;;;;;;;;;22.50;99.90;;;;;;5100336;28;20411;-65
2023/04/04 08:10:23;;;;;;;;;;;22.40;99.90;;;;;;5099468;28;20516;-65
2023/04/04 08:12:49;;;;;;;;;;;22.40;99.90;;;;;;5088451;28;19912;-67
2023/04/04 08:15:16;;;;;;;;;;;22.30;99.90;;;;;;5092963;28;19912;-66
2023/04/04 08:17:43;;;;;;;;;;;22.20;99.90;;;;;;5096514;28;19912;-66
2023/04/04 08:20:10;;;;;;;;;;;22.20;99.90;;;;;;5099004;28;19908;-71
2023/04/04 08:22:36;;;;;;;;;;;22.10;99.90;;;;;;5099822;28;19994;-66
2023/04/04 08:25:03;;;;;;;;;;;22.10;99.90;;;;;;5099007;28;20003;-65
2023/04/04 08:27:30;;;;;;;;;;;22.00;99.90;;;;;;5100018;28;20356;-70
2023/04/04 08:29:56;;;;;;;;;;;21.90;99.90;;;;;;5092776;28;20300;-65
2023/04/04 08:32:23;;;;;;;;;;;21.80;99.90;;;;;;5091344;28;19919;-65
2023/04/04 08:34:50;;;;;;;;;;;21.80;99.90;;;;;;5094184;28;19912;-66
2023/04/04 08:37:17;;;;;;;;;;;21.80;99.90;;;;;;5091471;28;20317;-65
2023/04/04 08:39:44;;;;;;;;;;;21.80;99.90;;;;;;5099088;28;19912;-71
2023/04/04 08:42:13;;;;;;;;;;;21.70;99.90;;;;;;5098716;28;19912;-65
2023/04/04 08:44:41;;;;;;;;;;;21.70;99.90;;;;;;5099295;28;19908;-69
2023/04/04 08:47:09;;;;;;;;;;;21.70;99.90;;;;;;5099433;28;19999;-65
2023/04/04 08:49:41;;;;;;;;;;;21.60;99.90;;;;;;5083810;28;19916;-68
2023/04/04 08:52:10;;;;;;;;;;;21.60;99.90;;;;;;5090448;28;20372;-71
2023/04/04 08:54:39;;;;;;;;;;;21.60;99.90;;;;;;5100163;28;19915;-66
2023/04/04 08:57:07;;;;;;;;;;;21.50;99.90;;;;;;5099774;28;19947;-66
2023/04/04 08:59:33;;;;;;;;;;;21.50;99.90;;;;;;5098662;28;19915;-68
2023/04/04 09:02:04;;;;;;;;;;;21.40;99.90;;;;;;5098352;28;19918;-69
2023/04/04 09:04:31;;;;;;;;;;;21.30;99.90;;;;;;5098116;28;20747;-67
2023/04/04 09:06:59;;;;;;;;;;;21.30;99.90;;;;;;5098517;28;19994;-68
2023/04/04 09:09:26;;;;;;;;;;;21.20;99.90;;;;;;5097502;28;19974;-67
2023/04/04 09:11:53;;;;;;;;;;;21.20;99.90;;;;;;5098830;28;19912;-66
2023/04/04 09:14:20;;;;;;;;;;;21.20;99.90;;;;;;5098060;28;19947;-71
2023/04/04 09:16:47;;;;;;;;;;;21.10;99.90;;;;;;5094405;28;19912;-70
2023/04/04 09:19:13;;;;;;;;;;;21.10;99.90;;;;;;5099064;28;19908;-65
2023/04/04 09:21:45;;;;;;;;;;;21.10;99.90;;;;;;5098127;28;19995;-65
2023/04/04 09:24:12;;;;;;;;;;;21.10;99.90;;;;;;5098675;28;19912;-69
2023/04/04 09:26:49;;;;;;;;;;;21.10;99.90;;;;;;5095665;28;19919;-70
2023/04/04 09:29:20;;;;;;;;;;;21.10;99.90;;;;;;5091286;28;19961;-67
2023/04/04 09:31:48;;;;;;;;;;;21.10;99.90;;;;;;5097826;28;19912;-67
2023/04/04 09:34:16;;;;;;;;;;;21.00;99.90;;;;;;5098922;28;19946;-67
2023/04/04 09:36:46;;;;;;;;;;;21.00;99.90;;;;;;5099174;28;19908;-66
2023/04/04 09:39:15;;;;;;;;;;;21.00;99.90;;;;;;5097956;28;19923;-64
2023/04/04 09:41:44;;;;;;;;;;;21.00;99.90;;;;;;5098180;28;19912;-65
2023/04/04 09:44:11;;;;;;;;;;;21.00;99.90;;;;;;5083013;28;20380;-74
2023/04/04 09:46:39;;;;;;;;;;;21.00;99.90;;;;;;5084858;28;20642;-67
2023/04/04 09:49:10;;;;;;;;;;;21.00;99.90;;;;;;5097809;28;20633;-63
2023/04/04 09:51:37;;;;;;;;;;;20.90;99.90;;;;;;5097157;28;19918;-71
2023/04/04 09:54:05;;;;;;;;;;;20.80;99.90;;;;;;5097908;28;19908;-63
2023/04/04 09:56:42;;;;;;;;;;;20.80;99.90;;;;;;5096535;28;19997;-70
2023/04/04 09:59:08;;;;;;;;;;;20.80;99.90;;;;;;5097168;28;20395;-67
2023/04/04 10:01:37;;;;;;;;;;;20.70;99.90;;;;;;5096794;28;19912;-67
2023/04/04 10:04:05;;;;;;;;;;;20.70;99.90;;;;;;5097601;28;19911;-69
2023/04/04 10:06:32;;;;;;;;;;;20.70;99.90;;;;;;5095912;28;19957;-66
2023/04/04 10:08:58;;;;;;;;;;;20.70;99.90;;;;;;5096619;28;19923;-69
2023/04/04 10:11:30;;;;;;;;;;;20.70;99.90;;;;;;5096617;28;19989;-71
2023/04/04 10:13:58;;;;;;;;;;;20.70;99.90;;;;;;5097325;28;19922;-64
2023/04/04 10:16:25;;;;;;;;;;;20.60;99.90;;;;;;5087290;28;19976;-65
2023/04/04 10:18:56;;;;;;;;;;;20.60;99.90;;;;;;5098339;28;19908;-64
2023/04/04 10:21:23;;;;;;;;;;;20.60;99.90;;;;;;5078183;28;20356;-70
2023/04/04 10:23:50;;;;;;;;;;;20.50;99.90;;;;;;5077575;28;19912;-68
2023/04/04 10:26:16;;;;;;;;;;;20.50;99.90;;;;;;5081799;28;19961;-62
2023/04/04 10:28:44;;;;;;;;;;;20.50;99.90;;;;;;5092859;28;19915;-65
2023/04/04 10:31:18;;;;;;;;;;;20.50;99.90;;;;;;5077401;28;20274;-67
2023/04/04 10:33:48;;;;;;;;;;;20.40;99.90;;;;;;5076322;28;19912;-61
2023/04/04 10:36:20;;;;;;;;;;;20.30;99.90;;;;;;5081177;28;20432;-64
2023/04/04 10:38:51;;;;;;;;;;;20.30;99.90;;;;;;5085717;28;20182;-67
2023/04/04 10:41:19;;;;;;;;;;;20.30;99.90;;;;;;5096620;28;20007;-67
2023/04/04 10:43:47;;;;;;;;;;;20.20;99.90;;;;;;5096540;28;19949;-71
2023/04/04 10:46:15;;;;;;;;;;;20.10;99.90;;;;;;5096954;28;19912;-63
2023/04/04 10:48:42;;;;;;;;;;;20.10;99.90;;;;;;5096481;28;19985;-69
2023/04/04 10:51:11;;;;;;;;;;;20.00;99.90;;;;;;5097193;28;20391;-68
2023/04/04 10:53:38;;;;;;;;;;;19.90;99.90;;;;;;5079625;28;19912;-71
2023/04/04 10:56:06;;;;;;;;;;;19.90;99.90;;;;;;5103252;28;19973;-70
2023/04/04 10:58:38;;;;;;;;;;;19.80;99.90;;;;;;5103527;28;19908;-70
2023/04/04 11:01:06;;;;;;;;;;;19.80;99.90;;;;;;5103903;28;19989;-64
2023/04/04 11:03:53;;;;;;;;;;;19.70;99.90;;;;;;5103388;28;19908;-68
2023/04/04 11:06:25;;;;;;;;;;;19.70;99.90;;;;;;5103161;28;20249;-67
2023/04/04 11:08:55;;;;;;;;;;;19.70;99.90;;;;;;5102367;28;19907;-72
2023/04/04 11:11:24;;;;;;;;;;;19.60;99.90;;;;;;5103741;28;19916;-71
2023/04/04 11:14:00;;;;;;;;;;;19.60;99.90;;;;;;5102085;28;19918;-71
2023/04/04 11:16:43;;;;;;;;;;;19.60;99.90;;;;;;5102197;28;19916;-67
2023/04/04 11:19:13;;;;;;;;;;;19.50;99.90;;;;;;5102622;28;19936;-68
2023/04/04 11:21:41;;;;;;;;;;;19.50;99.90;;;;;;5102938;28;19922;-71
2023/04/04 11:24:15;;;;;;;;;;;19.40;99.90;;;;;;5102730;28;19999;-65
2023/04/04 11:26:44;;;;;;;;;;;19.40;99.90;;;;;;5102198;28;19947;-67
2023/04/04 11:29:19;;;;;;;;;;;19.30;99.90;;;;;;5103253;28;19912;-65
2023/04/04 11:31:48;;;;;;;;;;;19.30;99.90;;;;;;5102630;28;19912;-64
2023/04/04 11:34:28;;;;;;;;;;;19.30;99.90;;;;;;5103991;28;20421;-65
2023/04/04 11:36:56;;;;;;;;;;;19.20;99.90;;;;;;5101863;28;19925;-66
2023/04/04 11:39:31;;;;;;;;;;;19.20;99.90;;;;;;5103687;28;19915;-64
2023/04/04 11:42:02;;;;;;;;;;;19.20;99.90;;;;;;5103272;28;19908;-65
2023/04/04 11:44:30;;;;;;;;;;;19.10;99.90;;;;;;5103727;28;19912;-64
2023/04/04 11:47:01;;;;;;;;;;;19.10;99.90;;;;;;5102758;28;19919;-64
2023/04/04 11:49:31;;;;;;;;;;;19.00;99.90;;;;;;5103425;28;20652;-64
2023/04/04 11:51:58;;;;;;;;;;;19.00;99.90;;;;;;5102860;28;19914;-64
2023/04/04 11:54:26;;;;;;;;;;;19.10;99.90;;;;;;5093838;28;20010;-67
2023/04/04 11:56:53;;;;;;;;;;;19.10;99.90;;;;;;5101997;28;20576;-68
2023/04/04 11:59:20;;;;;;;;;;;19.00;99.90;;;;;;5103069;28;19999;-69
2023/04/04 12:01:48;;;;;;;;;;;19.00;99.90;;;;;;5102824;28;19908;-73
2023/04/04 12:04:21;;;;;;;;;;;19.00;99.90;;;;;;5103964;28;19914;-71
2023/04/04 12:06:52;;;;;;;;;;;19.00;99.90;;;;;;5098329;28;19915;-69
2023/04/04 12:09:19;;;;;;;;;;;19.10;99.90;;;;;;5099987;28;19915;-68
2023/04/04 12:11:49;;;;;;;;;;;19.00;99.90;;;;;;5099229;28;20283;-65
2023/04/04 12:14:20;;;;;;;;;;;19.00;99.90;;;;;;5099876;28;19908;-68
2023/04/04 12:16:48;;;;;;;;;;;18.90;99.90;;;;;;5099315;28;19930;-65
2023/04/04 12:19:14;;;;;;;;;;;18.90;99.90;;;;;;5100406;28;19903;-64
2023/04/04 12:21:41;;;;;;;;;;;18.80;99.90;;;;;;5100449;28;19931;-68
2023/04/04 12:24:08;;;;;;;;;;;18.80;99.90;;;;;;5100476;28;19907;-65
2023/04/04 12:26:42;;;;;;;;;;;18.80;99.90;;;;;;5100498;28;19908;-64
2023/04/04 12:29:09;;;;;;;;;;;18.70;99.90;;;;;;5100205;28;19908;-65
2023/04/04 12:31:37;;;;;;;;;;;18.70;99.90;;;;;;5100612;28;20398;-68
2023/04/04 12:34:03;;;;;;;;;;;18.70;99.90;;;;;;5098787;28;19956;-67
2023/04/04 12:36:30;;;;;;;;;;;18.70;99.90;;;;;;5091734;28;19912;-70
2023/04/04 12:38:59;;;;;;;;;;;18.60;99.90;;;;;;5078768;28;19958;-64
2023/04/04 12:41:26;;;;;;;;;;;18.60;99.90;;;;;;5079494;28;20372;-65
2023/04/04 12:44:03;;;;;;;;;;;18.50;99.90;;;;;;5078407;28;19909;-65
2023/04/04 12:46:38;;;;;;;;;;;18.50;99.90;;;;;;5091459;28;20001;-64
2023/04/04 12:49:11;;;;;;;;;;;18.50;99.90;;;;;;5098505;28;19908;-67
2023/04/04 12:51:38;;;;;;;;;;;18.40;99.90;;;;;;5099756;28;20287;-64
2023/04/04 12:54:06;;;;;;;;;;;18.40;99.90;;;;;;5098534;28;19908;-70
2023/04/04 12:56:34;;;;;;;;;;;18.40;99.90;;;;;;5089358;28;19912;-71
2023/04/04 12:59:04;;;;;;;;;;;18.30;99.90;;;;;;5078661;28;20372;-70
2023/04/04 13:01:32;;;;;;;;;;;18.30;99.90;;;;;;5078651;28;19923;-68
2023/04/04 13:04:05;;;;;;;;;;;18.30;99.90;;;;;;5093456;28;19919;-71
2023/04/04 13:06:32;;;;;;;;;;;18.30;99.90;;;;;;5092485;28;20334;-71
2023/04/04 13:08:58;;;;;;;;;;;18.30;99.90;;;;;;5078772;28;20428;-63
2023/04/04 13:11:26;;;;;;;;;;;18.20;99.90;;;;;;5079372;28;20008;-63
2023/04/04 13:14:02;;;;;;;;;;;18.20;99.90;;;;;;5093092;28;19916;-65
2023/04/04 13:16:34;;;;;;;;;;;18.20;99.90;;;;;;5080941;28;20326;-63
2023/04/04 13:19:01;;;;;;;;;;;18.10;99.90;;;;;;5096906;28;19912;-64
2023/04/04 13:21:28;;;;;;;;;;;18.10;99.90;;;;;;5097946;28;20314;-70
2023/04/04 13:23:55;;;;;;;;;;;18.10;99.90;;;;;;5098435;28;19918;-66
2023/04/04 13:26:22;;;;;;;;;;;18.00;99.90;;;;;;5098673;28;19976;-68
2023/04/04 13:28:48;;;;;;;;;;;18.00;99.90;;;;;;5099310;28;19915;-64
2023/04/04 13:31:16;;;;;;;;;;;17.90;99.90;;;;;;5097671;28;20003;-66
2023/04/04 13:33:42;;;;;;;;;;;17.90;99.90;;;;;;5098878;28;19908;-65
2023/04/04 13:36:09;;;;;;;;;;;17.80;99.90;;;;;;5098397;28;19915;-67
2023/04/04 13:38:36;;;;;;;;;;;17.80;99.90;;;;;;5098678;28;20401;-65
2023/04/04 13:41:02;;;;;;;;;;;17.90;99.90;;;;;;5089354;28;19973;-64
2023/04/04 13:43:29;;;;;;;;;;;17.80;99.90;;;;;;5081422;28;19982;-64
2023/04/04 13:45:56;;;;;;;;;;;17.80;99.90;;;;;;5083618;28;20292;-70
2023/04/04 13:48:22;;;;;;;;;;;17.80;99.90;;;;;;5097238;28;19944;-63
2023/04/04 13:50:53;;;;;;;;;;;17.80;99.90;;;;;;5084292;28;19920;-66
2023/04/04 13:53:20;;;;;;;;;;;17.70;99.90;;;;;;5076658;28;19982;-64
2023/04/04 13:55:47;;;;;;;;;;;17.60;99.90;;;;;;5078178;28;19916;-64
2023/04/04 13:58:18;;;;;;;;;;;17.60;99.90;;;;;;5077344;28;19930;-63
2023/04/04 14:00:46;;;;;;;;;;;17.70;99.90;;;;;;5078156;28;19958;-63
2023/04/04 14:03:13;;;;;;;;;;;17.60;99.90;;;;;;5077542;28;19914;-65
2023/04/04 14:05:40;;;;;;;;;;;17.50;99.90;;;;;;5078573;28;20007;-65
2023/04/04 14:08:07;;;;;;;;;;;17.60;99.90;;;;;;5089478;28;19912;-64
2023/04/04 14:10:33;;;;;;;;;;;17.60;99.90;;;;;;5096182;28;19972;-67
2023/04/04 14:13:00;;;;;;;;;;;17.60;99.90;;;;;;5098637;28;19908;-65
2023/04/04 14:15:27;;;;;;;;;;;17.50;99.90;;;;;;5096984;28;19912;-69
2023/04/04 14:17:54;;;;;;;;;;;17.50;99.90;;;;;;5098766;28;20274;-71
2023/04/04 14:20:21;;;;;;;;;;;17.40;99.90;;;;;;5086107;28;19912;-69